createdAt,value
2023-10-08T00:03:03.961Z,96008.66
2023-10-08T00:08:06.247Z,96013.88
2023-10-08T00:13:08.919Z,96027.50
2023-10-08T00:18:11.072Z,96013.69
2023-10-08T00:23:13.183Z,96005.63
2023-10-08T00:28:15.048Z,96017.97
2023-10-08T00:33:16.993Z,96004.91
2023-10-08T00:38:18.997Z,96019.09
2023-10-08T00:43:36.514Z,96023.34
2023-10-08T00:48:38.534Z,96000.00
2023-10-08T00:53:40.505Z,96019.16
2023-10-08T00:58:42.697Z,96032.31
2023-10-08T01:03:44.878Z,96022.59
2023-10-08T01:08:47.502Z,96017.25
2023-10-08T01:13:49.635Z,96020.41
2023-10-08T01:18:51.776Z,96020.41
2023-10-08T01:23:53.847Z,96025.44
2023-10-08T01:28:55.707Z,96031.66
2023-10-08T01:33:57.704Z,96014.13
2023-10-08T01:38:59.663Z,96011.94
2023-10-08T01:44:01.629Z,96020.28
2023-10-08T01:49:03.647Z,96042.84
2023-10-08T01:54:05.850Z,96035.13
2023-10-08T01:59:08.095Z,96036.59
2023-10-08T02:04:10.650Z,96047.03
2023-10-08T02:09:12.803Z,96026.03
2023-10-08T02:14:14.925Z,96021.94
2023-10-08T02:19:17.342Z,96037.09
2023-10-08T02:24:19.340Z,96027.91
2023-10-08T02:29:21.660Z,96026.97
2023-10-08T02:34:23.651Z,96018.81
2023-10-08T02:39:25.556Z,96019.44
2023-10-08T02:44:27.655Z,96032.19
2023-10-08T02:49:29.688Z,96015.91
2023-10-08T02:54:31.580Z,96019.22
2023-10-08T02:59:33.885Z,96011.59
2023-10-08T03:04:35.768Z,96021.84
2023-10-08T03:09:37.796Z,96003.88
2023-10-08T03:14:39.776Z,96009.09
2023-10-08T03:19:41.749Z,96007.31
2023-10-08T03:24:43.717Z,96008.78
2023-10-08T03:29:45.699Z,96000.41
2023-10-08T03:34:48.451Z,96017.97
2023-10-08T03:39:51.016Z,96002.53
2023-10-08T03:44:53.411Z,96005.22
2023-10-08T03:49:55.203Z,95997.03
2023-10-08T03:54:57.069Z,96016.06
2023-10-08T03:59:59.043Z,96007.91
2023-10-08T04:05:00.962Z,96005.75
2023-10-08T04:10:02.876Z,96010.00
2023-10-08T04:15:06.216Z,96009.47
2023-10-08T04:20:09.324Z,96030.88
2023-10-08T04:25:11.236Z,96040.56
2023-10-08T04:30:13.496Z,96021.94
2023-10-08T04:35:15.523Z,96031.75
2023-10-08T04:40:17.569Z,96026.44
2023-10-08T04:45:19.483Z,96033.66
2023-10-08T04:50:21.641Z,96034.81
2023-10-08T04:55:23.642Z,96025.34
2023-10-08T05:00:25.573Z,96024.81
2023-10-08T05:05:27.574Z,96022.09
2023-10-08T05:10:29.580Z,96029.16
2023-10-08T05:15:32.070Z,96039.28
2023-10-08T05:20:33.892Z,96035.78
2023-10-08T05:25:35.790Z,96036.69
2023-10-08T05:30:37.631Z,96049.88
2023-10-08T05:35:41.148Z,96033.47
2023-10-08T05:40:46.437Z,96039.53
2023-10-08T05:45:48.377Z,96036.25
2023-10-08T05:50:50.285Z,96040.56
2023-10-08T05:55:52.271Z,96037.78
2023-10-08T06:00:54.215Z,96040.78
2023-10-08T06:05:56.196Z,96050.41
2023-10-08T06:10:58.144Z,96053.75
2023-10-08T06:16:00.110Z,96063.91
2023-10-08T06:21:03.235Z,96053.28
2023-10-08T06:26:05.272Z,96058.06
2023-10-08T06:31:07.534Z,96044.19
2023-10-08T06:36:09.543Z,96063.50
2023-10-08T06:41:14.411Z,96051.84
2023-10-08T06:46:18.574Z,96054.53
2023-10-08T06:51:21.772Z,96071.25
2023-10-08T06:56:23.731Z,96070.59
2023-10-08T07:01:25.783Z,96074.38
2023-10-08T07:06:27.702Z,96073.13
2023-10-08T07:11:29.670Z,96063.69
2023-10-08T07:16:34.870Z,96064.94
2023-10-08T07:21:37.031Z,96077.22
2023-10-08T07:26:39.060Z,96083.34
2023-10-08T07:31:41.004Z,96096.63
2023-10-08T07:36:47.382Z,96087.75
2023-10-08T07:41:49.960Z,96086.91
2023-10-08T07:46:52.726Z,96095.34
2023-10-08T07:51:54.713Z,96091.63
2023-10-08T07:56:56.835Z,96098.09
2023-10-08T08:01:58.892Z,96118.34
2023-10-08T08:07:00.861Z,96115.59
2023-10-08T08:12:02.893Z,96114.84
2023-10-08T08:17:04.903Z,96132.81
2023-10-08T08:22:06.907Z,96139.63
2023-10-08T08:27:08.860Z,96146.41
2023-10-08T08:32:11.449Z,96132.81
2023-10-08T08:37:13.214Z,96138.84
2023-10-08T08:42:15.110Z,96151.66
2023-10-08T08:47:17.086Z,96159.88
2023-10-08T08:52:19.053Z,96156.03
2023-10-08T08:57:20.971Z,96150.63
2023-10-08T09:02:22.923Z,96147.16
2023-10-08T09:07:24.963Z,96164.50
2023-10-08T09:12:27.805Z,96156.53
2023-10-08T09:17:30.197Z,96170.13
2023-10-08T09:22:32.156Z,96168.88
2023-10-08T09:27:34.239Z,96163.19
2023-10-08T09:32:36.228Z,96174.53
2023-10-08T09:37:38.264Z,96172.78
2023-10-08T09:42:40.209Z,96172.47
2023-10-08T09:47:44.551Z,96178.22
2023-10-08T09:53:07.630Z,96142.66
2023-10-08T09:58:10.068Z,96172.88
2023-10-08T10:03:11.981Z,96181.00
2023-10-08T10:08:15.605Z,96177.44
2023-10-08T10:13:18.009Z,96198.84
2023-10-08T10:18:22.901Z,96198.66
2023-10-08T10:23:44.273Z,96211.84
2023-10-08T10:28:46.363Z,96219.78
2023-10-08T10:33:48.397Z,96232.75
2023-10-08T10:38:50.395Z,96226.59
2023-10-08T10:43:52.374Z,96221.50
2023-10-08T10:48:54.454Z,96235.13
2023-10-08T10:53:56.523Z,96238.66
2023-10-08T10:59:01.965Z,96233.72
2023-10-08T11:04:04.058Z,96230.75
2023-10-08T11:09:06.148Z,96225.06
2023-10-08T11:14:08.112Z,96243.59
2023-10-08T11:19:10.128Z,96240.88
2023-10-08T11:24:12.360Z,96246.75
2023-10-08T11:29:14.507Z,96239.41
2023-10-08T11:34:16.709Z,96241.94
2023-10-08T11:39:18.603Z,96244.50
2023-10-08T11:44:20.529Z,96231.41
2023-10-08T11:49:22.535Z,96247.88
2023-10-08T11:54:24.418Z,96250.44
2023-10-08T11:59:26.470Z,96249.06
2023-10-08T12:04:28.728Z,96233.31
2023-10-08T12:09:30.764Z,96240.31
2023-10-08T12:14:32.744Z,96260.19
2023-10-08T12:19:34.726Z,96258.88
2023-10-08T12:24:36.700Z,96257.78
2023-10-08T12:29:38.745Z,96254.81
2023-10-08T12:34:40.783Z,96255.72
2023-10-08T12:39:42.739Z,96257.09
2023-10-08T12:44:45.829Z,96249.56
2023-10-08T12:49:48.779Z,96238.53
2023-10-08T12:54:50.860Z,96258.56
2023-10-08T12:59:52.865Z,96250.44
2023-10-08T13:04:56.149Z,96248.78
2023-10-08T13:09:58.050Z,96260.78
2023-10-08T13:15:00.043Z,96268.09
2023-10-08T13:20:01.941Z,96254.09
2023-10-08T13:25:05.306Z,96265.59
2023-10-08T13:30:08.513Z,96263.81
2023-10-08T13:35:10.764Z,96257.72
2023-10-08T13:40:12.936Z,96253.53
2023-10-08T13:45:14.946Z,96264.56
2023-10-08T13:50:16.819Z,96273.13
2023-10-08T13:55:18.854Z,96268.28
2023-10-08T14:00:21.095Z,96271.28
2023-10-08T14:05:23.207Z,96259.13
2023-10-08T14:10:25.205Z,96268.53
2023-10-08T14:15:27.268Z,96272.53
2023-10-08T14:20:29.241Z,96274.59
2023-10-08T14:25:31.239Z,96266.91
2023-10-08T14:30:33.426Z,96271.09
2023-10-08T14:35:35.483Z,96273.69
2023-10-08T14:40:37.719Z,96269.91
2023-10-08T14:45:39.611Z,96278.31
2023-10-08T14:50:41.618Z,96275.59
2023-10-08T14:55:43.599Z,96284.75
2023-10-08T15:00:45.547Z,96285.66
2023-10-08T15:05:49.046Z,96284.00
2023-10-08T15:10:52.258Z,96294.97
2023-10-08T15:15:54.168Z,96300.78
2023-10-08T15:20:56.170Z,96307.44
2023-10-08T15:25:58.192Z,96310.47
2023-10-08T15:31:00.201Z,96305.78
2023-10-08T15:36:02.308Z,96308.47
2023-10-08T15:41:04.352Z,96308.75
2023-10-08T15:46:06.491Z,96310.75
2023-10-08T15:51:08.516Z,96304.19
2023-10-08T15:56:10.469Z,96307.69
2023-10-08T16:01:12.501Z,96311.69
2023-10-08T16:06:14.566Z,96314.44
2023-10-08T16:11:16.586Z,96332.50
2023-10-08T16:16:18.628Z,96336.13
2023-10-08T16:21:20.577Z,96335.81
2023-10-08T16:26:22.682Z,96336.13
2023-10-08T16:31:24.705Z,96335.53
2023-10-08T16:36:26.782Z,96345.16
2023-10-08T16:41:29.357Z,96346.09
2023-10-08T16:46:31.129Z,96343.66
2023-10-08T16:51:33.221Z,96347.38
2023-10-08T16:56:35.534Z,96352.25
2023-10-08T17:01:37.515Z,96361.19
2023-10-08T17:06:39.680Z,96356.88
2023-10-08T17:11:42.184Z,96354.19
2023-10-08T17:16:44.021Z,96361.84
2023-10-08T17:21:46.604Z,96365.66
2023-10-08T17:26:54.588Z,96364.91
2023-10-08T17:32:02.963Z,96370.00
2023-10-08T17:37:04.979Z,96372.38
2023-10-08T17:42:07.021Z,96387.69
2023-10-08T17:47:09.188Z,96373.53
2023-10-08T17:52:11.188Z,96381.25
2023-10-08T17:57:13.472Z,96390.56
2023-10-08T18:02:15.942Z,96389.50
2023-10-08T18:07:17.732Z,96390.88
2023-10-08T18:12:23.116Z,96396.47
2023-10-08T18:17:25.179Z,96405.31
2023-10-08T18:22:27.257Z,96405.47
2023-10-08T18:27:29.198Z,96399.34
2023-10-08T18:32:31.226Z,96416.53
2023-10-08T18:37:36.545Z,96412.06
2023-10-08T18:42:38.637Z,96415.31
2023-10-08T18:47:40.962Z,96409.38
2023-10-08T18:52:43.164Z,96414.41
2023-10-08T18:57:48.545Z,96423.97
2023-10-08T19:02:50.893Z,96430.47
2023-10-08T19:07:53.134Z,96435.38
2023-10-08T19:12:55.182Z,96447.81
2023-10-08T19:17:57.252Z,96446.75
2023-10-08T19:22:59.381Z,96451.25
2023-10-08T19:28:01.457Z,96464.25
2023-10-08T19:33:04.434Z,96462.50
2023-10-08T19:38:07.426Z,96472.06
2023-10-08T19:43:09.598Z,96478.91
2023-10-08T19:48:11.756Z,96476.97
2023-10-08T19:53:17.011Z,96481.84
2023-10-08T19:58:19.818Z,96490.84
2023-10-08T20:03:22.121Z,96494.00
2023-10-08T20:08:24.208Z,96503.25
2023-10-08T20:13:26.258Z,96505.34
2023-10-08T20:18:28.442Z,96511.47
2023-10-08T20:23:30.423Z,96523.84
2023-10-08T20:28:32.588Z,96515.47
2023-10-08T20:33:34.668Z,96534.84
2023-10-08T20:38:36.800Z,96542.66
2023-10-08T20:43:38.880Z,96538.72
2023-10-08T20:48:41.033Z,96545.28
2023-10-08T20:53:43.068Z,96560.69
2023-10-08T20:58:45.151Z,96563.25
2023-10-08T21:03:47.300Z,96575.72
2023-10-08T21:08:49.352Z,96588.03
2023-10-08T21:13:51.254Z,96591.72
2023-10-08T21:18:53.390Z,96593.56
2023-10-08T21:23:55.438Z,96599.44
2023-10-08T21:28:57.522Z,96606.44
2023-10-08T21:33:59.542Z,96616.72
2023-10-08T21:39:01.732Z,96624.97
2023-10-08T21:44:03.772Z,96619.50
2023-10-08T21:49:05.751Z,96622.16
2023-10-08T21:54:07.842Z,96637.41
2023-10-08T21:59:09.879Z,96642.94
2023-10-08T22:04:12.172Z,96648.97
2023-10-08T22:09:16.859Z,96656.41
2023-10-08T22:14:19.334Z,96662.72
2023-10-08T22:19:24.734Z,96676.78
2023-10-08T22:24:26.793Z,96684.59
2023-10-08T22:29:28.861Z,96690.31
2023-10-08T22:34:30.910Z,96704.56
2023-10-08T22:39:32.903Z,96699.53
2023-10-08T22:44:34.979Z,96713.69
2023-10-08T22:49:37.735Z,96717.06
2023-10-08T22:54:39.839Z,96711.72
2023-10-08T22:59:41.897Z,96733.41
2023-10-08T23:04:44.030Z,96744.34
2023-10-08T23:09:46.240Z,96748.59
2023-10-08T23:14:48.420Z,96757.03
2023-10-08T23:19:50.452Z,96745.63
2023-10-08T23:24:52.876Z,96760.16
2023-10-08T23:29:55.921Z,96760.56
2023-10-08T23:34:58.124Z,96767.03
2023-10-08T23:40:00.175Z,96772.03
2023-10-08T23:45:02.279Z,96777.56
2023-10-08T23:50:06.434Z,96784.34
2023-10-08T23:55:08.768Z,96790.00
